Aviation Weather View - Albury, NSW
Albury
METAR YMAY 051630Z 01002KT 9999 00/00 Q1018
ADVISORY INFORMATION ONLY.
Information and images sourced on a "best effort" basis from
our own station 2.7NM north of the field at 1016ft AMSL.
Weather information is NOT from the Albury Airport.

Contact Ross on 0409-578-660
Updated 1652Z (06-Aug-2020 at 02:52:03 local)
Temperature 4.1 Deg C
QNH is 1018
Humidity is 100% RH
Dewpoint is 4.1 Deg C
Estimated Cloudbase is BELOW 1000 feet amsl
Wind: Calm
Solar Insolation: 0 W/m^2

TWR: 123.25 SMC: 121.8 AWIS: 134.525 ATIS: 115.6/133.85 Map
How to interpret the wind rose
Wind Rose
Solar Radiation Decoded METAR data
Albury Airport (94896, YMAY)
WMO Index: 95896
ID Name: YMAY
Date/Time: 05-Aug-2020 1630 UTC
Lat/Lon: 36.07S 146.95E
Wind: 010 deg true at 02.0 knots
Temperature: 0.4 deg C
Dewpoint: 0.1 deg C
QNH: 1018.1
Rain since 9am: 0.0
Rain last 10 mins: 0.0
Visibility: -9999 metres
AutoVisibility: 10000 metres
Max Wind Gust last 10 mins: 04.0 knots

Calculated humidity: 97.9 %RH